sensor_id;sensor_type;location;lat;lon;timestamp;P1;durP1;ratioP1;P2;durP2;ratioP2
14526;SDS011;7350;51.208;4.238;2022-08-19T00:01:16;36.25;;;32.33;;
14526;SDS011;7350;51.208;4.238;2022-08-19T00:03:43;37.45;;;33.22;;
14526;SDS011;7350;51.208;4.238;2022-08-19T00:06:10;37.03;;;32.20;;
14526;SDS011;7350;51.208;4.238;2022-08-19T00:08:37;37.88;;;33.75;;
14526;SDS011;7350;51.208;4.238;2022-08-19T00:11:04;38.92;;;33.60;;
14526;SDS011;7350;51.208;4.238;2022-08-19T00:13:32;37.20;;;33.03;;
14526;SDS011;7350;51.208;4.238;2022-08-19T00:16:01;39.53;;;34.20;;
14526;SDS011;7350;51.208;4.238;2022-08-19T00:18:28;41.22;;;34.42;;
14526;SDS011;7350;51.208;4.238;2022-08-19T00:20:55;36.75;;;32.75;;
14526;SDS011;7350;51.208;4.238;2022-08-19T00:23:22;38.88;;;33.58;;
14526;SDS011;7350;51.208;4.238;2022-08-19T00:25:49;37.50;;;33.13;;
14526;SDS011;7350;51.208;4.238;2022-08-19T00:28:17;37.40;;;33.40;;
14526;SDS011;7350;51.208;4.238;2022-08-19T00:30:45;38.00;;;33.85;;
14526;SDS011;7350;51.208;4.238;2022-08-19T00:33:13;38.00;;;33.88;;
14526;SDS011;7350;51.208;4.238;2022-08-19T00:35:42;37.17;;;33.17;;
14526;SDS011;7350;51.208;4.238;2022-08-19T00:38:09;35.47;;;31.58;;
14526;SDS011;7350;51.208;4.238;2022-08-19T00:40:36;37.70;;;33.65;;
14526;SDS011;7350;51.208;4.238;2022-08-19T00:43:07;37.03;;;32.90;;
14526;SDS011;7350;51.208;4.238;2022-08-19T00:45:36;37.60;;;33.42;;
14526;SDS011;7350;51.208;4.238;2022-08-19T00:48:03;37.63;;;32.90;;
14526;SDS011;7350;51.208;4.238;2022-08-19T00:50:33;38.55;;;34.38;;
14526;SDS011;7350;51.208;4.238;2022-08-19T00:53:01;38.83;;;33.58;;
14526;SDS011;7350;51.208;4.238;2022-08-19T00:55:30;38.67;;;34.47;;
14526;SDS011;7350;51.208;4.238;2022-08-19T00:58:00;40.83;;;35.67;;
14526;SDS011;7350;51.208;4.238;2022-08-19T01:00:31;37.38;;;33.33;;
14526;SDS011;7350;51.208;4.238;2022-08-19T01:03:01;39.40;;;35.28;;
14526;SDS011;7350;51.208;4.238;2022-08-19T01:05:29;38.58;;;33.83;;
14526;SDS011;7350;51.208;4.238;2022-08-19T01:07:59;44.63;;;36.08;;
14526;SDS011;7350;51.208;4.238;2022-08-19T01:10:29;40.53;;;34.22;;
14526;SDS011;7350;51.208;4.238;2022-08-19T01:12:59;42.03;;;35.92;;
14526;SDS011;7350;51.208;4.238;2022-08-19T01:15:29;42.25;;;35.53;;
14526;SDS011;7350;51.208;4.238;2022-08-19T01:17:58;44.22;;;36.80;;
14526;SDS011;7350;51.208;4.238;2022-08-19T01:20:29;44.20;;;36.60;;
14526;SDS011;7350;51.208;4.238;2022-08-19T01:23:01;44.85;;;37.15;;
14526;SDS011;7350;51.208;4.238;2022-08-19T01:25:29;46.58;;;38.17;;
14526;SDS011;7350;51.208;4.238;2022-08-19T01:28:00;44.50;;;37.30;;
14526;SDS011;7350;51.208;4.238;2022-08-19T01:30:29;43.30;;;36.15;;
14526;SDS011;7350;51.208;4.238;2022-08-19T01:33:00;43.03;;;37.20;;
14526;SDS011;7350;51.208;4.238;2022-08-19T01:35:28;47.15;;;36.70;;
14526;SDS011;7350;51.208;4.238;2022-08-19T01:37:58;43.60;;;36.20;;
14526;SDS011;7350;51.208;4.238;2022-08-19T01:40:32;37.70;;;32.85;;
14526;SDS011;7350;51.208;4.238;2022-08-19T01:43:01;41.03;;;32.60;;
14526;SDS011;7350;51.208;4.238;2022-08-19T01:45:30;38.53;;;31.90;;
14526;SDS011;7350;51.208;4.238;2022-08-19T01:48:00;40.05;;;32.28;;
14526;SDS011;7350;51.208;4.238;2022-08-19T01:50:27;36.38;;;29.95;;
14526;SDS011;7350;51.208;4.238;2022-08-19T01:52:55;36.00;;;28.77;;
14526;SDS011;7350;51.208;4.238;2022-08-19T01:55:23;36.30;;;29.67;;
14526;SDS011;7350;51.208;4.238;2022-08-19T01:57:50;35.38;;;28.15;;
14526;SDS011;7350;51.208;4.238;2022-08-19T02:00:25;35.10;;;27.63;;
14526;SDS011;7350;51.208;4.238;2022-08-19T02:02:55;33.45;;;28.20;;
14526;SDS011;7350;51.208;4.238;2022-08-19T02:05:22;37.45;;;28.95;;
14526;SDS011;7350;51.208;4.238;2022-08-19T02:07:49;36.85;;;29.35;;
14526;SDS011;7350;51.208;4.238;2022-08-19T02:10:18;38.05;;;30.38;;
14526;SDS011;7350;51.208;4.238;2022-08-19T02:12:48;35.08;;;28.30;;
14526;SDS011;7350;51.208;4.238;2022-08-19T02:15:15;34.63;;;27.55;;
14526;SDS011;7350;51.208;4.238;2022-08-19T02:17:44;39.47;;;28.48;;
14526;SDS011;7350;51.208;4.238;2022-08-19T02:20:11;38.45;;;29.45;;
14526;SDS011;7350;51.208;4.238;2022-08-19T02:22:39;33.63;;;27.63;;
14526;SDS011;7350;51.208;4.238;2022-08-19T02:25:07;36.28;;;28.98;;
14526;SDS011;7350;51.208;4.238;2022-08-19T02:27:35;39.67;;;28.98;;
14526;SDS011;7350;51.208;4.238;2022-08-19T02:30:04;33.53;;;27.63;;
14526;SDS011;7350;51.208;4.238;2022-08-19T02:32:33;39.70;;;28.85;;
14526;SDS011;7350;51.208;4.238;2022-08-19T02:35:00;37.22;;;29.65;;
14526;SDS011;7350;51.208;4.238;2022-08-19T02:37:27;40.92;;;30.23;;
14526;SDS011;7350;51.208;4.238;2022-08-19T02:40:11;39.92;;;29.80;;
14526;SDS011;7350;51.208;4.238;2022-08-19T02:42:39;40.15;;;30.02;;
14526;SDS011;7350;51.208;4.238;2022-08-19T02:45:09;36.25;;;29.85;;
14526;SDS011;7350;51.208;4.238;2022-08-19T02:47:36;39.03;;;30.42;;
14526;SDS011;7350;51.208;4.238;2022-08-19T02:50:04;41.10;;;30.70;;
14526;SDS011;7350;51.208;4.238;2022-08-19T02:52:32;41.13;;;31.48;;
14526;SDS011;7350;51.208;4.238;2022-08-19T02:54:59;41.05;;;31.00;;
14526;SDS011;7350;51.208;4.238;2022-08-19T02:57:27;41.97;;;30.50;;
14526;SDS011;7350;51.208;4.238;2022-08-19T02:59:56;40.08;;;30.20;;
14526;SDS011;7350;51.208;4.238;2022-08-19T03:02:25;40.28;;;30.92;;
14526;SDS011;7350;51.208;4.238;2022-08-19T03:04:52;43.28;;;31.42;;
14526;SDS011;7350;51.208;4.238;2022-08-19T03:07:22;39.55;;;30.67;;
14526;SDS011;7350;51.208;4.238;2022-08-19T03:09:49;39.85;;;30.00;;
14526;SDS011;7350;51.208;4.238;2022-08-19T03:12:16;40.13;;;30.08;;
14526;SDS011;7350;51.208;4.238;2022-08-19T03:14:43;43.63;;;28.92;;
14526;SDS011;7350;51.208;4.238;2022-08-19T03:17:10;41.47;;;29.17;;
14526;SDS011;7350;51.208;4.238;2022-08-19T03:19:39;38.88;;;29.83;;
14526;SDS011;7350;51.208;4.238;2022-08-19T03:22:06;40.70;;;29.20;;
14526;SDS011;7350;51.208;4.238;2022-08-19T03:24:35;39.92;;;29.58;;
14526;SDS011;7350;51.208;4.238;2022-08-19T03:27:02;43.10;;;28.88;;
14526;SDS011;7350;51.208;4.238;2022-08-19T03:29:30;38.80;;;29.30;;
14526;SDS011;7350;51.208;4.238;2022-08-19T03:31:58;40.50;;;28.25;;
14526;SDS011;7350;51.208;4.238;2022-08-19T03:34:27;39.20;;;27.67;;
14526;SDS011;7350;51.208;4.238;2022-08-19T03:36:57;38.83;;;29.13;;
14526;SDS011;7350;51.208;4.238;2022-08-19T03:39:32;39.30;;;29.35;;
14526;SDS011;7350;51.208;4.238;2022-08-19T03:42:04;39.08;;;28.38;;
14526;SDS011;7350;51.208;4.238;2022-08-19T03:44:31;40.58;;;28.50;;
14526;SDS011;7350;51.208;4.238;2022-08-19T03:47:01;39.53;;;26.75;;
14526;SDS011;7350;51.208;4.238;2022-08-19T03:49:30;39.50;;;26.60;;
14526;SDS011;7350;51.208;4.238;2022-08-19T03:52:01;39.58;;;27.83;;
14526;SDS011;7350;51.208;4.238;2022-08-19T03:54:32;38.88;;;26.92;;
14526;SDS011;7350;51.208;4.238;2022-08-19T03:57:00;44.65;;;27.33;;
14526;SDS011;7350;51.208;4.238;2022-08-19T03:59:28;35.88;;;25.65;;
14526;SDS011;7350;51.208;4.238;2022-08-19T04:01:58;38.67;;;26.50;;
14526;SDS011;7350;51.208;4.238;2022-08-19T04:04:27;38.80;;;25.17;;
14526;SDS011;7350;51.208;4.238;2022-08-19T04:06:54;34.85;;;25.23;;
14526;SDS011;7350;51.208;4.238;2022-08-19T04:09:26;36.22;;;24.30;;
14526;SDS011;7350;51.208;4.238;2022-08-19T04:11:54;35.58;;;24.48;;
14526;SDS011;7350;51.208;4.238;2022-08-19T04:14:23;34.63;;;24.15;;
14526;SDS011;7350;51.208;4.238;2022-08-19T04:16:53;33.15;;;23.27;;
14526;SDS011;7350;51.208;4.238;2022-08-19T04:19:20;35.20;;;23.35;;
14526;SDS011;7350;51.208;4.238;2022-08-19T04:21:49;34.00;;;23.30;;
14526;SDS011;7350;51.208;4.238;2022-08-19T04:24:18;31.88;;;23.15;;
14526;SDS011;7350;51.208;4.238;2022-08-19T04:26:46;37.08;;;23.33;;
14526;SDS011;7350;51.208;4.238;2022-08-19T04:29:15;34.65;;;23.15;;
14526;SDS011;7350;51.208;4.238;2022-08-19T04:31:46;32.53;;;23.25;;
14526;SDS011;7350;51.208;4.238;2022-08-19T04:34:15;35.35;;;22.17;;
14526;SDS011;7350;51.208;4.238;2022-08-19T04:36:44;33.28;;;23.27;;
14526;SDS011;7350;51.208;4.238;2022-08-19T04:39:12;32.72;;;21.88;;
14526;SDS011;7350;51.208;4.238;2022-08-19T04:41:41;30.35;;;21.55;;
14526;SDS011;7350;51.208;4.238;2022-08-19T04:44:27;28.55;;;20.85;;
14526;SDS011;7350;51.208;4.238;2022-08-19T04:46:55;32.28;;;21.40;;
14526;SDS011;7350;51.208;4.238;2022-08-19T04:49:23;30.48;;;20.73;;
14526;SDS011;7350;51.208;4.238;2022-08-19T04:51:51;31.13;;;20.17;;
14526;SDS011;7350;51.208;4.238;2022-08-19T04:54:20;29.92;;;19.58;;
14526;SDS011;7350;51.208;4.238;2022-08-19T04:56:50;27.83;;;19.73;;
14526;SDS011;7350;51.208;4.238;2022-08-19T04:59:18;28.15;;;19.23;;
14526;SDS011;7350;51.208;4.238;2022-08-19T05:01:47;30.63;;;19.55;;
14526;SDS011;7350;51.208;4.238;2022-08-19T05:04:15;29.17;;;20.70;;
14526;SDS011;7350;51.208;4.238;2022-08-19T05:06:44;28.80;;;19.70;;
14526;SDS011;7350;51.208;4.238;2022-08-19T05:09:12;32.55;;;19.42;;
14526;SDS011;7350;51.208;4.238;2022-08-19T05:11:39;28.63;;;18.85;;
14526;SDS011;7350;51.208;4.238;2022-08-19T05:14:06;26.33;;;19.17;;
14526;SDS011;7350;51.208;4.238;2022-08-19T05:16:34;27.00;;;18.73;;
14526;SDS011;7350;51.208;4.238;2022-08-19T05:19:02;27.92;;;19.30;;
14526;SDS011;7350;51.208;4.238;2022-08-19T05:21:46;30.75;;;19.02;;
14526;SDS011;7350;51.208;4.238;2022-08-19T05:24:30;24.98;;;18.95;;
14526;SDS011;7350;51.208;4.238;2022-08-19T05:26:59;29.40;;;18.98;;
14526;SDS011;7350;51.208;4.238;2022-08-19T05:29:28;26.88;;;17.88;;
14526;SDS011;7350;51.208;4.238;2022-08-19T05:31:56;23.13;;;16.67;;
14526;SDS011;7350;51.208;4.238;2022-08-19T05:34:25;27.00;;;17.98;;
14526;SDS011;7350;51.208;4.238;2022-08-19T05:36:56;22.73;;;18.08;;
14526;SDS011;7350;51.208;4.238;2022-08-19T05:39:25;24.52;;;16.90;;
14526;SDS011;7350;51.208;4.238;2022-08-19T05:41:55;24.55;;;17.08;;
14526;SDS011;7350;51.208;4.238;2022-08-19T05:44:24;26.17;;;17.38;;
14526;SDS011;7350;51.208;4.238;2022-08-19T05:46:52;22.00;;;16.23;;
14526;SDS011;7350;51.208;4.238;2022-08-19T05:49:20;24.50;;;15.65;;
14526;SDS011;7350;51.208;4.238;2022-08-19T05:51:51;22.38;;;15.48;;
14526;SDS011;7350;51.208;4.238;2022-08-19T05:54:18;24.42;;;15.38;;
14526;SDS011;7350;51.208;4.238;2022-08-19T05:56:45;20.88;;;16.05;;
14526;SDS011;7350;51.208;4.238;2022-08-19T05:59:14;23.10;;;14.98;;
14526;SDS011;7350;51.208;4.238;2022-08-19T06:01:43;22.50;;;14.60;;
14526;SDS011;7350;51.208;4.238;2022-08-19T06:04:11;19.42;;;14.27;;
14526;SDS011;7350;51.208;4.238;2022-08-19T06:06:39;23.13;;;13.57;;
14526;SDS011;7350;51.208;4.238;2022-08-19T06:09:08;19.10;;;13.45;;
14526;SDS011;7350;51.208;4.238;2022-08-19T06:11:37;20.45;;;13.40;;
14526;SDS011;7350;51.208;4.238;2022-08-19T06:14:08;17.55;;;13.35;;
14526;SDS011;7350;51.208;4.238;2022-08-19T06:16:37;20.33;;;13.43;;
14526;SDS011;7350;51.208;4.238;2022-08-19T06:19:06;18.73;;;13.18;;
14526;SDS011;7350;51.208;4.238;2022-08-19T06:21:36;18.15;;;13.82;;
14526;SDS011;7350;51.208;4.238;2022-08-19T06:24:06;19.25;;;13.50;;
14526;SDS011;7350;51.208;4.238;2022-08-19T06:26:37;20.30;;;13.95;;
14526;SDS011;7350;51.208;4.238;2022-08-19T06:29:05;20.20;;;14.27;;
14526;SDS011;7350;51.208;4.238;2022-08-19T06:31:34;21.23;;;14.18;;
14526;SDS011;7350;51.208;4.238;2022-08-19T06:34:02;21.40;;;15.20;;
14526;SDS011;7350;51.208;4.238;2022-08-19T06:36:32;22.05;;;14.60;;
14526;SDS011;7350;51.208;4.238;2022-08-19T06:39:00;25.25;;;14.23;;
14526;SDS011;7350;51.208;4.238;2022-08-19T06:41:30;20.73;;;14.30;;
14526;SDS011;7350;51.208;4.238;2022-08-19T06:44:00;22.02;;;15.02;;
14526;SDS011;7350;51.208;4.238;2022-08-19T06:46:27;21.52;;;14.30;;
14526;SDS011;7350;51.208;4.238;2022-08-19T06:48:54;21.48;;;14.57;;
14526;SDS011;7350;51.208;4.238;2022-08-19T06:51:21;22.65;;;15.10;;
14526;SDS011;7350;51.208;4.238;2022-08-19T06:53:49;20.25;;;14.82;;
14526;SDS011;7350;51.208;4.238;2022-08-19T06:56:18;21.15;;;14.55;;
14526;SDS011;7350;51.208;4.238;2022-08-19T06:58:48;20.95;;;14.95;;
14526;SDS011;7350;51.208;4.238;2022-08-19T07:01:16;20.80;;;14.60;;
14526;SDS011;7350;51.208;4.238;2022-08-19T07:03:43;19.75;;;16.30;;
14526;SDS011;7350;51.208;4.238;2022-08-19T07:06:12;21.67;;;15.93;;
14526;SDS011;7350;51.208;4.238;2022-08-19T07:08:42;22.38;;;16.55;;
14526;SDS011;7350;51.208;4.238;2022-08-19T07:11:12;23.33;;;17.02;;
14526;SDS011;7350;51.208;4.238;2022-08-19T07:13:40;21.23;;;16.42;;
14526;SDS011;7350;51.208;4.238;2022-08-19T07:16:11;22.67;;;16.42;;
14526;SDS011;7350;51.208;4.238;2022-08-19T07:18:39;23.15;;;16.27;;
14526;SDS011;7350;51.208;4.238;2022-08-19T07:21:06;26.98;;;16.58;;
14526;SDS011;7350;51.208;4.238;2022-08-19T07:23:35;23.92;;;16.38;;
14526;SDS011;7350;51.208;4.238;2022-08-19T07:26:04;23.40;;;17.35;;
14526;SDS011;7350;51.208;4.238;2022-08-19T07:28:32;21.90;;;16.30;;
14526;SDS011;7350;51.208;4.238;2022-08-19T07:30:59;20.92;;;15.35;;
14526;SDS011;7350;51.208;4.238;2022-08-19T07:33:29;20.70;;;15.95;;
14526;SDS011;7350;51.208;4.238;2022-08-19T07:35:57;21.92;;;15.90;;
14526;SDS011;7350;51.208;4.238;2022-08-19T07:38:24;19.67;;;15.38;;
14526;SDS011;7350;51.208;4.238;2022-08-19T07:40:51;21.50;;;15.93;;
14526;SDS011;7350;51.208;4.238;2022-08-19T07:43:19;20.20;;;15.43;;
14526;SDS011;7350;51.208;4.238;2022-08-19T07:45:50;21.55;;;14.63;;
14526;SDS011;7350;51.208;4.238;2022-08-19T07:48:17;18.13;;;14.73;;
14526;SDS011;7350;51.208;4.238;2022-08-19T07:50:46;17.48;;;14.88;;
14526;SDS011;7350;51.208;4.238;2022-08-19T07:53:13;19.52;;;15.13;;
14526;SDS011;7350;51.208;4.238;2022-08-19T07:55:40;20.13;;;14.80;;
14526;SDS011;7350;51.208;4.238;2022-08-19T07:58:07;18.10;;;14.25;;
14526;SDS011;7350;51.208;4.238;2022-08-19T08:00:34;22.98;;;14.85;;
14526;SDS011;7350;51.208;4.238;2022-08-19T08:03:01;20.23;;;14.65;;
14526;SDS011;7350;51.208;4.238;2022-08-19T08:05:28;19.35;;;14.13;;
14526;SDS011;7350;51.208;4.238;2022-08-19T08:08:14;16.65;;;13.55;;
14526;SDS011;7350;51.208;4.238;2022-08-19T08:11:01;16.38;;;14.18;;
14526;SDS011;7350;51.208;4.238;2022-08-19T08:13:28;20.45;;;15.07;;
14526;SDS011;7350;51.208;4.238;2022-08-19T08:15:55;19.60;;;13.82;;
14526;SDS011;7350;51.208;4.238;2022-08-19T08:18:22;18.65;;;13.63;;
14526;SDS011;7350;51.208;4.238;2022-08-19T08:20:50;16.60;;;13.02;;
14526;SDS011;7350;51.208;4.238;2022-08-19T08:23:18;17.88;;;14.10;;
14526;SDS011;7350;51.208;4.238;2022-08-19T08:25:51;21.25;;;14.18;;
14526;SDS011;7350;51.208;4.238;2022-08-19T08:28:20;17.17;;;13.20;;
14526;SDS011;7350;51.208;4.238;2022-08-19T08:30:48;17.35;;;13.18;;
14526;SDS011;7350;51.208;4.238;2022-08-19T08:33:17;18.00;;;14.07;;
14526;SDS011;7350;51.208;4.238;2022-08-19T08:35:46;18.13;;;12.63;;
14526;SDS011;7350;51.208;4.238;2022-08-19T08:38:13;18.23;;;13.57;;
14526;SDS011;7350;51.208;4.238;2022-08-19T08:40:45;17.48;;;13.45;;
14526;SDS011;7350;51.208;4.238;2022-08-19T08:43:19;19.23;;;13.32;;
14526;SDS011;7350;51.208;4.238;2022-08-19T08:45:53;15.43;;;12.90;;
14526;SDS011;7350;51.208;4.238;2022-08-19T08:48:30;17.35;;;13.45;;
14526;SDS011;7350;51.208;4.238;2022-08-19T08:51:04;21.17;;;14.80;;
14526;SDS011;7350;51.208;4.238;2022-08-19T08:53:35;18.85;;;14.63;;
14526;SDS011;7350;51.208;4.238;2022-08-19T08:56:06;19.33;;;14.80;;
14526;SDS011;7350;51.208;4.238;2022-08-19T08:58:39;20.80;;;15.13;;
14526;SDS011;7350;51.208;4.238;2022-08-19T09:01:14;18.50;;;14.75;;
14526;SDS011;7350;51.208;4.238;2022-08-19T09:03:42;23.92;;;15.48;;
14526;SDS011;7350;51.208;4.238;2022-08-19T09:06:12;19.63;;;14.32;;
14526;SDS011;7350;51.208;4.238;2022-08-19T09:08:46;17.95;;;13.95;;
14526;SDS011;7350;51.208;4.238;2022-08-19T09:14:08;18.00;;;12.25;;
14526;SDS011;7350;51.208;4.238;2022-08-19T09:16:43;17.52;;;12.52;;
14526;SDS011;7350;51.208;4.238;2022-08-19T09:19:10;18.40;;;14.02;;
14526;SDS011;7350;51.208;4.238;2022-08-19T09:21:37;22.85;;;15.23;;
14526;SDS011;7350;51.208;4.238;2022-08-19T09:24:04;25.38;;;15.07;;
14526;SDS011;7350;51.208;4.238;2022-08-19T09:26:32;20.33;;;14.80;;
14526;SDS011;7350;51.208;4.238;2022-08-19T09:29:01;22.58;;;14.35;;
14526;SDS011;7350;51.208;4.238;2022-08-19T09:31:30;22.05;;;15.02;;
14526;SDS011;7350;51.208;4.238;2022-08-19T09:33:58;19.88;;;13.18;;
14526;SDS011;7350;51.208;4.238;2022-08-19T09:36:31;20.23;;;14.48;;
14526;SDS011;7350;51.208;4.238;2022-08-19T09:39:01;19.77;;;13.27;;
14526;SDS011;7350;51.208;4.238;2022-08-19T09:41:29;19.42;;;14.27;;
14526;SDS011;7350;51.208;4.238;2022-08-19T09:43:56;20.02;;;14.13;;
14526;SDS011;7350;51.208;4.238;2022-08-19T09:46:27;18.38;;;13.35;;
14526;SDS011;7350;51.208;4.238;2022-08-19T09:48:57;18.88;;;13.55;;
14526;SDS011;7350;51.208;4.238;2022-08-19T09:51:25;17.02;;;13.18;;
14526;SDS011;7350;51.208;4.238;2022-08-19T09:53:54;20.10;;;13.85;;
14526;SDS011;7350;51.208;4.238;2022-08-19T09:56:25;17.92;;;13.27;;
14526;SDS011;7350;51.208;4.238;2022-08-19T09:58:52;19.65;;;13.60;;
14526;SDS011;7350;51.208;4.238;2022-08-19T10:01:21;20.45;;;12.30;;
14526;SDS011;7350;51.208;4.238;2022-08-19T10:03:51;16.70;;;12.48;;
14526;SDS011;7350;51.208;4.238;2022-08-19T10:06:20;18.52;;;12.50;;
14526;SDS011;7350;51.208;4.238;2022-08-19T10:08:48;20.27;;;12.93;;
14526;SDS011;7350;51.208;4.238;2022-08-19T10:11:16;17.88;;;12.15;;
14526;SDS011;7350;51.208;4.238;2022-08-19T10:13:44;15.90;;;11.60;;
14526;SDS011;7350;51.208;4.238;2022-08-19T10:16:12;16.33;;;12.30;;
14526;SDS011;7350;51.208;4.238;2022-08-19T10:18:43;16.08;;;11.95;;
14526;SDS011;7350;51.208;4.238;2022-08-19T10:21:12;17.42;;;12.60;;
14526;SDS011;7350;51.208;4.238;2022-08-19T10:23:40;16.08;;;12.48;;
14526;SDS011;7350;51.208;4.238;2022-08-19T10:26:10;17.65;;;12.73;;
14526;SDS011;7350;51.208;4.238;2022-08-19T10:28:39;16.58;;;11.73;;
14526;SDS011;7350;51.208;4.238;2022-08-19T10:31:06;18.75;;;12.50;;
14526;SDS011;7350;51.208;4.238;2022-08-19T10:33:35;17.70;;;11.75;;
14526;SDS011;7350;51.208;4.238;2022-08-19T10:36:04;19.17;;;12.55;;
14526;SDS011;7350;51.208;4.238;2022-08-19T10:38:36;15.35;;;11.90;;
14526;SDS011;7350;51.208;4.238;2022-08-19T10:41:06;16.25;;;12.50;;
14526;SDS011;7350;51.208;4.238;2022-08-19T10:43:34;17.42;;;12.23;;
14526;SDS011;7350;51.208;4.238;2022-08-19T10:46:03;16.13;;;12.18;;
14526;SDS011;7350;51.208;4.238;2022-08-19T10:48:31;17.35;;;12.85;;
14526;SDS011;7350;51.208;4.238;2022-08-19T10:50:59;17.13;;;12.25;;
14526;SDS011;7350;51.208;4.238;2022-08-19T10:53:44;15.30;;;10.75;;
14526;SDS011;7350;51.208;4.238;2022-08-19T10:56:11;15.13;;;10.60;;
14526;SDS011;7350;51.208;4.238;2022-08-19T10:58:56;14.25;;;11.05;;
14526;SDS011;7350;51.208;4.238;2022-08-19T11:01:23;12.00;;;10.43;;
14526;SDS011;7350;51.208;4.238;2022-08-19T11:03:50;15.85;;;10.35;;
14526;SDS011;7350;51.208;4.238;2022-08-19T11:06:17;11.45;;;10.13;;
14526;SDS011;7350;51.208;4.238;2022-08-19T11:08:46;12.18;;;10.38;;
14526;SDS011;7350;51.208;4.238;2022-08-19T11:11:13;11.02;;;9.90;;
14526;SDS011;7350;51.208;4.238;2022-08-19T11:13:41;12.35;;;9.95;;
14526;SDS011;7350;51.208;4.238;2022-08-19T11:16:10;12.80;;;10.38;;
14526;SDS011;7350;51.208;4.238;2022-08-19T11:18:40;15.93;;;9.82;;
14526;SDS011;7350;51.208;4.238;2022-08-19T11:21:09;11.23;;;9.07;;
14526;SDS011;7350;51.208;4.238;2022-08-19T11:23:38;11.02;;;9.00;;
14526;SDS011;7350;51.208;4.238;2022-08-19T11:26:07;10.90;;;8.95;;
14526;SDS011;7350;51.208;4.238;2022-08-19T11:28:34;12.40;;;9.45;;
14526;SDS011;7350;51.208;4.238;2022-08-19T11:31:01;9.63;;;8.40;;
14526;SDS011;7350;51.208;4.238;2022-08-19T11:33:29;11.93;;;8.88;;
14526;SDS011;7350;51.208;4.238;2022-08-19T11:35:56;9.98;;;7.70;;
14526;SDS011;7350;51.208;4.238;2022-08-19T11:38:24;8.85;;;6.55;;
14526;SDS011;7350;51.208;4.238;2022-08-19T11:40:55;7.82;;;6.97;;
14526;SDS011;7350;51.208;4.238;2022-08-19T11:43:24;7.30;;;6.50;;
14526;SDS011;7350;51.208;4.238;2022-08-19T11:45:52;7.95;;;6.07;;
14526;SDS011;7350;51.208;4.238;2022-08-19T11:48:19;8.95;;;6.95;;
14526;SDS011;7350;51.208;4.238;2022-08-19T11:50:47;8.35;;;5.60;;
14526;SDS011;7350;51.208;4.238;2022-08-19T11:53:15;8.32;;;5.53;;
14526;SDS011;7350;51.208;4.238;2022-08-19T11:55:43;7.40;;;5.85;;
14526;SDS011;7350;51.208;4.238;2022-08-19T11:58:10;8.13;;;6.65;;
14526;SDS011;7350;51.208;4.238;2022-08-19T12:00:40;6.65;;;5.47;;
14526;SDS011;7350;51.208;4.238;2022-08-19T12:03:10;6.32;;;5.43;;
14526;SDS011;7350;51.208;4.238;2022-08-19T12:05:38;7.07;;;6.18;;
14526;SDS011;7350;51.208;4.238;2022-08-19T12:08:05;8.30;;;6.28;;
14526;SDS011;7350;51.208;4.238;2022-08-19T12:10:32;7.55;;;5.53;;
14526;SDS011;7350;51.208;4.238;2022-08-19T12:13:00;7.25;;;5.00;;
14526;SDS011;7350;51.208;4.238;2022-08-19T12:15:27;7.35;;;5.00;;
14526;SDS011;7350;51.208;4.238;2022-08-19T12:17:56;5.53;;;5.00;;
14526;SDS011;7350;51.208;4.238;2022-08-19T12:20:23;5.65;;;4.70;;
14526;SDS011;7350;51.208;4.238;2022-08-19T12:22:51;6.75;;;4.60;;
14526;SDS011;7350;51.208;4.238;2022-08-19T12:25:18;4.53;;;4.05;;
14526;SDS011;7350;51.208;4.238;2022-08-19T12:27:45;4.78;;;4.28;;
14526;SDS011;7350;51.208;4.238;2022-08-19T12:30:13;8.27;;;4.00;;
14526;SDS011;7350;51.208;4.238;2022-08-19T12:32:40;7.47;;;4.18;;
14526;SDS011;7350;51.208;4.238;2022-08-19T12:35:09;5.00;;;4.43;;
14526;SDS011;7350;51.208;4.238;2022-08-19T12:37:37;5.47;;;4.00;;
14526;SDS011;7350;51.208;4.238;2022-08-19T12:40:07;7.18;;;4.25;;
14526;SDS011;7350;51.208;4.238;2022-08-19T12:42:36;6.15;;;4.20;;
14526;SDS011;7350;51.208;4.238;2022-08-19T12:45:07;4.03;;;3.63;;
14526;SDS011;7350;51.208;4.238;2022-08-19T12:47:35;3.63;;;2.95;;
14526;SDS011;7350;51.208;4.238;2022-08-19T12:50:03;5.20;;;3.13;;
14526;SDS011;7350;51.208;4.238;2022-08-19T12:52:35;4.13;;;2.78;;
14526;SDS011;7350;51.208;4.238;2022-08-19T12:55:03;4.85;;;3.10;;
14526;SDS011;7350;51.208;4.238;2022-08-19T12:57:32;3.78;;;2.60;;
14526;SDS011;7350;51.208;4.238;2022-08-19T13:00:01;3.85;;;2.60;;
14526;SDS011;7350;51.208;4.238;2022-08-19T13:02:32;4.97;;;2.97;;
14526;SDS011;7350;51.208;4.238;2022-08-19T13:05:00;4.55;;;2.95;;
14526;SDS011;7350;51.208;4.238;2022-08-19T13:07:26;4.65;;;3.15;;
14526;SDS011;7350;51.208;4.238;2022-08-19T13:09:55;3.13;;;2.80;;
14526;SDS011;7350;51.208;4.238;2022-08-19T13:12:22;3.80;;;2.50;;
14526;SDS011;7350;51.208;4.238;2022-08-19T13:14:51;3.33;;;3.03;;
14526;SDS011;7350;51.208;4.238;2022-08-19T13:17:18;5.97;;;3.20;;
14526;SDS011;7350;51.208;4.238;2022-08-19T13:19:46;3.92;;;2.30;;
14526;SDS011;7350;51.208;4.238;2022-08-19T13:22:13;4.30;;;2.40;;
14526;SDS011;7350;51.208;4.238;2022-08-19T13:24:39;2.03;;;1.58;;
14526;SDS011;7350;51.208;4.238;2022-08-19T13:27:08;2.22;;;2.00;;
14526;SDS011;7350;51.208;4.238;2022-08-19T13:29:35;3.03;;;1.67;;
14526;SDS011;7350;51.208;4.238;2022-08-19T13:32:19;4.00;;;2.20;;
14526;SDS011;7350;51.208;4.238;2022-08-19T13:35:03;2.10;;;1.88;;
14526;SDS011;7350;51.208;4.238;2022-08-19T13:37:31;3.28;;;1.60;;
14526;SDS011;7350;51.208;4.238;2022-08-19T13:40:11;3.15;;;2.70;;
14526;SDS011;7350;51.208;4.238;2022-08-19T13:42:43;3.95;;;2.08;;
14526;SDS011;7350;51.208;4.238;2022-08-19T13:45:12;5.32;;;2.25;;
14526;SDS011;7350;51.208;4.238;2022-08-19T13:47:41;1.92;;;1.73;;
14526;SDS011;7350;51.208;4.238;2022-08-19T13:50:09;2.95;;;1.60;;
14526;SDS011;7350;51.208;4.238;2022-08-19T13:52:37;4.22;;;2.60;;
14526;SDS011;7350;51.208;4.238;2022-08-19T13:55:05;2.63;;;2.05;;
14526;SDS011;7350;51.208;4.238;2022-08-19T13:57:33;3.80;;;2.20;;
14526;SDS011;7350;51.208;4.238;2022-08-19T14:00:03;3.47;;;2.58;;
14526;SDS011;7350;51.208;4.238;2022-08-19T14:02:32;4.53;;;2.28;;
14526;SDS011;7350;51.208;4.238;2022-08-19T14:04:59;7.88;;;2.35;;
14526;SDS011;7350;51.208;4.238;2022-08-19T14:07:26;5.05;;;2.25;;
14526;SDS011;7350;51.208;4.238;2022-08-19T14:09:53;5.05;;;1.88;;
14526;SDS011;7350;51.208;4.238;2022-08-19T14:12:20;4.95;;;2.15;;
14526;SDS011;7350;51.208;4.238;2022-08-19T14:14:48;1.90;;;1.48;;
14526;SDS011;7350;51.208;4.238;2022-08-19T14:17:16;3.55;;;1.58;;
14526;SDS011;7350;51.208;4.238;2022-08-19T14:19:43;3.47;;;1.40;;
14526;SDS011;7350;51.208;4.238;2022-08-19T14:22:10;5.50;;;2.17;;
14526;SDS011;7350;51.208;4.238;2022-08-19T14:24:37;6.63;;;2.20;;
14526;SDS011;7350;51.208;4.238;2022-08-19T14:27:05;8.20;;;2.40;;
14526;SDS011;7350;51.208;4.238;2022-08-19T14:29:32;8.38;;;2.13;;
14526;SDS011;7350;51.208;4.238;2022-08-19T14:32:00;5.95;;;2.40;;
14526;SDS011;7350;51.208;4.238;2022-08-19T14:34:28;5.75;;;2.17;;
14526;SDS011;7350;51.208;4.238;2022-08-19T14:36:56;8.60;;;2.88;;
14526;SDS011;7350;51.208;4.238;2022-08-19T14:39:23;4.63;;;2.60;;
14526;SDS011;7350;51.208;4.238;2022-08-19T14:41:50;3.70;;;2.00;;
14526;SDS011;7350;51.208;4.238;2022-08-19T14:44:18;4.22;;;1.40;;
14526;SDS011;7350;51.208;4.238;2022-08-19T14:46:45;6.10;;;1.95;;
14526;SDS011;7350;51.208;4.238;2022-08-19T14:49:12;8.98;;;2.42;;
14526;SDS011;7350;51.208;4.238;2022-08-19T14:51:40;2.78;;;1.70;;
14526;SDS011;7350;51.208;4.238;2022-08-19T14:54:07;4.15;;;2.60;;